Aviation Digital Data Service (ADDS)

Output produced by METARs form (0320 UTC 18 April 2015)
found at http://aviationweather.gov/adds/metars/
 
KLCH 180309Z 06005KT 9SM -TSRA SCT100 23/22 A2990 RMK AO2 LTG DSNT S-NW TSB03 P0002 T02330222